Terminal Aerodrome Forecast
Issued by NWS Portland, OR

Home | Current Version | Previous Version | Text Only | Print | Product List | Glossary On
Versions: 1 2 3 4 5 6 7 8 9 10 11 12 13 14 15 16 17 18 19 20 21 22 23
000
FTUS46 KPQR 171720
TAFHIO
TAF
KHIO 171720Z 1718/1818 VRB03KT P6SM SCT100 BKN250
     FM172200 28004KT P6SM VCSH BKN050 BKN100
     FM180400 34003KT P6SM -SHRA BKN050 OVC100
     FM181200 00000KT P6SM VCSH BKN050 OVC080=

USA.gov is the U.S. government's official web portal to all federal, state and local government web resources and services.